Eri Eru — JL6487 — position and weather

sailwx.info

Track history (hours):
 
Tides and Currents Weather Stations Pressure Air Temp Water Temp Dewpoint Dewpoint Depression Visibility Wind Speed Wind Dir Waves Ship Positions

Eri Eru

Last reported at 2018-Jan-21 23:50 UTC. Time now 2018-Jan-22 00:29 UTC.
Position N 35°29' E 139°48'.

Length 77 m; draft 4 m.

Type: Cargo ship. MMSI: 431501684.

Date/timePositionNaut miles runAvg speedWind from/ knotsBaromVisibWave heightAir tempDewpointWater temp
2018-Jan-21 23:50N 35°29' E 139°48'0 0.0
2018-Jan-21 23:20N 35°29' E 139°48'0 0.0
2018-Jan-21 22:56N 35°29' E 139°48'0 0.1
2018-Jan-21 22:26N 35°29' E 139°48'0 0.0
2018-Jan-21 21:59N 35°29' E 139°48'0 0.0
2018-Jan-21 21:29N 35°29' E 139°48'0 0.0
2018-Jan-21 20:50N 35°29' E 139°48'0 0.0
2018-Jan-21 20:14N 35°29' E 139°48'0 0.0
2018-Jan-21 19:59N 35°29' E 139°48'0 0.1
2018-Jan-21 19:29N 35°29' E 139°48'0 0.0
2018-Jan-21 18:59N 35°29' E 139°48'0 0.0
2018-Jan-21 18:26N 35°29' E 139°48'0 0.1
2018-Jan-21 17:53N 35°29' E 139°48'0 0.0
2018-Jan-21 17:29N 35°29' E 139°48'0 0.0
2018-Jan-21 16:56N 35°29' E 139°48'2 4.1
2018-Jan-21 16:30N 35°28' E 139°47'611.9
2018-Jan-21 16:00N 35°22' E 139°45'510.6
2018-Jan-21 15:30N 35°17' E 139°46'510.7
2018-Jan-21 15:01N 35°11' E 139°47'611.6
2018-Jan-21 14:30N 35°06' E 139°45'611.6
2018-Jan-21 14:00N 35°01' E 139°40'612.1
2018-Jan-21 13:29N 34°57' E 139°34'1014.1
2018-Jan-21 12:47N 34°52' E 139°24'614.3
2018-Jan-21 12:22N 34°48' E 139°18'513.9
2018-Jan-21 11:59N 34°45' E 139°13'814.3
2018-Jan-21 11:25N 34°40' E 139°06'613.0
2018-Jan-21 11:00N 34°37' E 139°00'812.5
2018-Jan-21 10:21N 34°34' E 138°51'412.1
2018-Jan-21 10:00N 34°34' E 138°46'612.4
2018-Jan-21 09:30N 34°34' E 138°38'712.7
2018-Jan-21 08:56N 34°33' E 138°29'613.1
2018-Jan-21 08:30N 34°33' E 138°23'612.9
2018-Jan-21 08:00N 34°33' E 138°15'16411.0
2018-Jan-20 17:02N 33°50' E 135°03'113.0
2018-Jan-20 16:56N 33°51' E 135°02'613.2
2018-Jan-20 16:30N 33°56' E 134°58'612.7
2018-Jan-20 16:00N 34°00' E 134°53'612.8
2018-Jan-20 15:30N 34°05' E 134°48'813.3
2018-Jan-20 14:56N 34°11' E 134°42'613.3
2018-Jan-20 14:30N 34°16' E 134°37'612.5
2018-Jan-20 14:00N 34°18' E 134°30'612.5
2018-Jan-20 13:30N 34°20' E 134°23'1111.7
2018-Jan-20 12:35N 34°24' E 134°11'211.3
2018-Jan-20 12:22N 34°26' E 134°09'6 0.1
2018-Jan-18 13:17N 34°24' E 134°16'613.1
2018-Jan-18 12:49N 34°22' E 134°23'412.8
2018-Jan-18 12:28N 34°20' E 134°28'713.2
2018-Jan-18 11:55N 34°17' E 134°36'613.0
2018-Jan-18 11:28N 34°12' E 134°41'613.0
2018-Jan-18 11:00N 34°08' E 134°45'712.4
2018-Jan-18 10:28N 34°03' E 134°51'612.6
2018-Jan-18 10:00N 33°59' E 134°56'  
2018-Jan-12 14:59N 33°58' E 134°55'611.8
2018-Jan-12 14:30N 33°54' E 134°59'  
Track history (hours):
 
Tides and Currents Weather Stations Pressure Air Temp Water Temp Dewpoint Dewpoint Depression Visibility Wind Speed Wind Dir Waves Ship Positions

Eri Eru

Last reported at 2018-Jan-21 23:50 UTC. Time now 2018-Jan-22 00:29 UTC.
Position N 35°29' E 139°48'.

Length 77 m; draft 4 m.

Type: Cargo ship. MMSI: 431501684.

Date/timePositionNaut miles runAvg speedWind from/ knotsBaromVisibWave heightAir tempDewpointWater temp
2018-Jan-21 23:50N 35°29' E 139°48'0 0.0
2018-Jan-21 23:20N 35°29' E 139°48'0 0.0
2018-Jan-21 22:56N 35°29' E 139°48'0 0.1
2018-Jan-21 22:26N 35°29' E 139°48'0 0.0
2018-Jan-21 21:59N 35°29' E 139°48'0 0.0
2018-Jan-21 21:29N 35°29' E 139°48'0 0.0
2018-Jan-21 20:50N 35°29' E 139°48'0 0.0
2018-Jan-21 20:14N 35°29' E 139°48'0 0.0
2018-Jan-21 19:59N 35°29' E 139°48'0 0.1
2018-Jan-21 19:29N 35°29' E 139°48'0 0.0
2018-Jan-21 18:59N 35°29' E 139°48'0 0.0
2018-Jan-21 18:26N 35°29' E 139°48'0 0.1
2018-Jan-21 17:53N 35°29' E 139°48'0 0.0
2018-Jan-21 17:29N 35°29' E 139°48'0 0.0
2018-Jan-21 16:56N 35°29' E 139°48'2 4.1
2018-Jan-21 16:30N 35°28' E 139°47'611.9
2018-Jan-21 16:00N 35°22' E 139°45'510.6
2018-Jan-21 15:30N 35°17' E 139°46'510.7
2018-Jan-21 15:01N 35°11' E 139°47'611.6
2018-Jan-21 14:30N 35°06' E 139°45'611.6
2018-Jan-21 14:00N 35°01' E 139°40'612.1
2018-Jan-21 13:29N 34°57' E 139°34'1014.1
2018-Jan-21 12:47N 34°52' E 139°24'614.3
2018-Jan-21 12:22N 34°48' E 139°18'513.9
2018-Jan-21 11:59N 34°45' E 139°13'814.3
2018-Jan-21 11:25N 34°40' E 139°06'613.0
2018-Jan-21 11:00N 34°37' E 139°00'812.5
2018-Jan-21 10:21N 34°34' E 138°51'412.1
2018-Jan-21 10:00N 34°34' E 138°46'612.4
2018-Jan-21 09:30N 34°34' E 138°38'712.7
2018-Jan-21 08:56N 34°33' E 138°29'613.1
2018-Jan-21 08:30N 34°33' E 138°23'612.9
2018-Jan-21 08:00N 34°33' E 138°15'16411.0
2018-Jan-20 17:02N 33°50' E 135°03'113.0
2018-Jan-20 16:56N 33°51' E 135°02'613.2
2018-Jan-20 16:30N 33°56' E 134°58'612.7
2018-Jan-20 16:00N 34°00' E 134°53'612.8
2018-Jan-20 15:30N 34°05' E 134°48'813.3
2018-Jan-20 14:56N 34°11' E 134°42'613.3
2018-Jan-20 14:30N 34°16' E 134°37'612.5
2018-Jan-20 14:00N 34°18' E 134°30'612.5
2018-Jan-20 13:30N 34°20' E 134°23'1111.7
2018-Jan-20 12:35N 34°24' E 134°11'211.3
2018-Jan-20 12:22N 34°26' E 134°09'6 0.1
2018-Jan-18 13:17N 34°24' E 134°16'613.1
2018-Jan-18 12:49N 34°22' E 134°23'412.8
2018-Jan-18 12:28N 34°20' E 134°28'713.2
2018-Jan-18 11:55N 34°17' E 134°36'613.0
2018-Jan-18 11:28N 34°12' E 134°41'613.0
2018-Jan-18 11:00N 34°08' E 134°45'712.4
2018-Jan-18 10:28N 34°03' E 134°51'612.6
2018-Jan-18 10:00N 33°59' E 134°56'  
2018-Jan-12 14:59N 33°58' E 134°55'611.8
2018-Jan-12 14:30N 33°54' E 134°59'  

Dump ship's entire track history